Nevskiy-31 — UCGM — position and weather

sailwx.info

Track history (hours):
 
Tides and Currents Weather Stations Pressure Air Temp Water Temp Dewpoint Dewpoint Depression Visibility Wind Speed Wind Dir Waves Ship Positions

Nevskiy-31

Last reported at 2015-May-25 06:33 UTC. Time now 2015-May-25 07:19 UTC.
Position N 59°56' E 030°24'.

Length 111 m; draft 2.4 m.

Type: Cargo ship. MMSI: 273440320.

Date/timePositionNaut miles runAvg speedWind from/ knotsBaromVisibWave heightAir tempDewpointWater temp
2015-May-25 06:33N 59°56' E 030°24'2 2.1
2015-May-25 05:33N 59°54' E 030°26'0 0.0
2015-May-25 04:23N 59°54' E 030°26'0 0.2
2015-May-25 03:30N 59°54' E 030°26'4 3.7
2015-May-25 02:33N 59°57' E 030°22'5 4.7
2015-May-25 01:33N 59°58' E 030°13'6 6.2
2015-May-25 00:33N 59°56' E 030°02'6 6.3
2015-May-24 23:33N 59°57' E 029°50'6 0.4
2015-May-24 09:31N 59°60' E 029°39'7 7.4
2015-May-24 08:33N 59°57' E 029°53'7 6.8
2015-May-24 07:33N 59°57' E 030°06'4 4.3
2015-May-24 06:33N 59°53' E 030°11'2 1.6
2015-May-24 05:33N 59°52' E 030°13'0 0.0
2015-May-24 04:33N 59°52' E 030°13'0 0.1
2015-May-24 03:34N 59°52' E 030°13'6 5.9
2015-May-24 02:33N 59°55' E 030°03'6 6.3
2015-May-24 01:33N 59°57' E 029°51'6 6.1
2015-May-24 00:33N 59°60' E 029°40'0 0.0
2015-May-23 10:33N 59°60' E 029°40'7 7.0
2015-May-23 09:33N 59°57' E 029°52'6 6.3
2015-May-23 08:33N 59°56' E 030°05'6 6.5
2015-May-23 07:33N 59°57' E 030°18'5 4.6
2015-May-23 06:27N 59°54' E 030°26'0 0.0
2015-May-23 05:32N 59°54' E 030°26'0 0.0
2015-May-23 03:12N 59°54' E 030°26'2 3.6
2015-May-23 02:33N 59°56' E 030°24'3 3.3
2015-May-23 01:33N 59°57' E 030°17'1 1.2
2015-May-23 00:33N 59°57' E 030°15'0 0.0
2015-May-22 23:33N 59°57' E 030°15'4 3.8
2015-May-22 22:33N 59°57' E 030°08'6 6.1
2015-May-22 21:33N 59°56' E 029°56'7 6.4
2015-May-22 20:32N 59°59' E 029°44'0 0.0
2015-May-22 06:26N 59°59' E 029°44'6 7.2
2015-May-22 05:33N 59°56' E 029°55'7 7.2
2015-May-22 04:33N 59°57' E 030°10'7 7.1
2015-May-22 03:33N 59°57' E 030°24'4 2.8
2015-May-22 02:15N 59°54' E 030°26'0 0.0
2015-May-22 01:33N 59°54' E 030°26'0 0.0
2015-May-22 00:33N 59°54' E 030°26'0 0.0
2015-May-21 23:29N 59°54' E 030°26'0 0.1
2015-May-21 22:31N 59°54' E 030°26'2 2.2
2015-May-21 21:32N 59°56' E 030°24'3 3.0
2015-May-21 20:33N 59°57' E 030°18'2 1.6
2015-May-21 19:33N 59°57' E 030°15'0 0.0
2015-May-21 18:33N 59°57' E 030°15'0 0.0
2015-May-21 17:33N 59°57' E 030°15'1 1.3
2015-May-21 16:33N 59°58' E 030°13'6 6.2
2015-May-21 15:33N 59°55' E 030°01'6 6.5
2015-May-21 14:33N 59°57' E 029°49'16 1.1
2015-May-21 00:23N 60°00' E 029°18'6 7.5
2015-May-20 23:32N 60°00' E 029°31'7 7.5
2015-May-20 22:33N 59°59' E 029°45'8 7.6
2015-May-20 21:33N 59°55' E 029°59'7 7.3
2015-May-20 20:33N 59°58' E 030°13'6 6.1
2015-May-20 19:33N 59°56' E 030°24'2 2.0
2015-May-20 18:33N 59°54' E 030°26'0 0.0
2015-May-20 17:33N 59°54' E 030°26'0 0.1
2015-May-20 16:27N 59°54' E 030°27'0 0.0
2015-May-20 13:29N 59°54' E 030°27'0 0.0
2015-May-20 12:32N 59°54' E 030°27'0 0.2
2015-May-20 09:32N 59°54' E 030°26'4 3.6
2015-May-20 08:33N 59°57' E 030°22'5 4.8
2015-May-20 07:33N 59°58' E 030°12'6 6.4
2015-May-20 06:33N 59°55' E 030°00'7 6.8
2015-May-20 05:33N 59°58' E 029°48'2 0.1
2015-May-19 15:26N 59°59' E 029°44'7 7.7
2015-May-19 14:32N 59°56' E 029°57'7 7.0
2015-May-19 13:33N 59°58' E 030°10'7 6.6
2015-May-19 12:32N 59°57' E 030°24'4 2.8
2015-May-19 11:14N 59°54' E 030°26'0 0.0
2015-May-19 10:23N 59°54' E 030°26'0 0.0
2015-May-19 09:24N 59°54' E 030°26'0 0.1
2015-May-19 07:22N 59°54' E 030°26'4 4.2
2015-May-19 06:31N 59°57' E 030°23'4 4.6
2015-May-19 05:33N 59°58' E 030°14'5 5.2
2015-May-19 04:32N 59°56' E 030°04'3 3.1
2015-May-19 03:33N 59°56' E 029°58'5 4.8
2015-May-19 02:33N 59°57' E 029°49'7 0.4
2015-May-18 09:28N 60°00' E 029°37'6 6.8
2015-May-18 08:33N 59°58' E 029°48'7 7.1
2015-May-18 07:33N 59°56' E 030°02'7 7.1
2015-May-18 06:33N 59°58' E 030°15'6 5.8
2015-May-18 05:32N 59°55' E 030°25'1 0.7
2015-May-18 04:31N 59°54' E 030°26'0 0.0
2015-May-18 03:25N 59°54' E 030°26'0 0.0
2015-May-17 20:07N 59°54' E 030°27'2 4.0
2015-May-17 19:31N 59°56' E 030°24'3 3.1
2015-May-17 18:33N 59°57' E 030°18'5 5.0
2015-May-17 17:33N 59°57' E 030°08'6 6.3
2015-May-17 16:33N 59°56' E 029°56'6 6.3
2015-May-17 15:32N 59°59' E 029°44'1 0.1
2015-May-16 22:32N 59°59' E 029°46'7 7.2
2015-May-16 21:33N 59°56' E 029°59'6 6.3
2015-May-16 20:33N 59°58' E 030°10'2 2.4
2015-May-16 19:33N 59°57' E 030°15'0 0.0
2015-May-16 18:32N 59°57' E 030°15'0 0.0
2015-May-16 17:33N 59°57' E 030°15'0 0.0
2015-May-16 16:32N 59°57' E 030°15'0 0.0
2015-May-16 15:33N 59°57' E 030°15'0 0.0
2015-May-16 14:33N 59°57' E 030°15'0 0.0
2015-May-16 13:33N 59°57' E 030°15'0 0.0
2015-May-16 12:33N 59°57' E 030°15'0 0.0
2015-May-16 11:33N 59°57' E 030°15'0 0.0
2015-May-16 10:33N 59°57' E 030°15'0 0.0
2015-May-16 09:33N 59°57' E 030°15'0 0.0
2015-May-16 08:33N 59°57' E 030°15'0 0.0
2015-May-16 07:33N 59°57' E 030°15'0 0.0
2015-May-16 06:33N 59°57' E 030°15'0 0.0
2015-May-16 05:33N 59°57' E 030°15'0 0.0
2015-May-16 04:33N 59°57' E 030°15'0 0.0
2015-May-16 03:33N 59°57' E 030°15'0 0.0
2015-May-16 02:33N 59°57' E 030°15'0 0.0
2015-May-16 01:33N 59°57' E 030°15'0 0.0
2015-May-16 00:33N 59°57' E 030°15'0 0.0
2015-May-15 23:33N 59°57' E 030°15'0 0.1
2015-May-15 22:33N 59°58' E 030°15'6 6.3
2015-May-15 21:33N 59°56' E 030°03'5 4.7
2015-May-15 20:33N 59°53' E 030°11'2 1.8
2015-May-15 19:33N 59°52' E 030°13'0 0.0
2015-May-15 18:33N 59°52' E 030°13'0 0.0
2015-May-15 17:33N 59°52' E 030°13'0 0.0
2015-May-15 16:33N 59°52' E 030°13'0 0.2
2015-May-15 15:32N 59°52' E 030°13'4 4.2
2015-May-15 14:33N 59°54' E 030°06'6 6.1
2015-May-15 13:33N 59°56' E 029°55'6 6.0
2015-May-15 12:33N 59°59' E 029°44'  
Track history (hours):
 
Tides and Currents Weather Stations Pressure Air Temp Water Temp Dewpoint Dewpoint Depression Visibility Wind Speed Wind Dir Waves Ship Positions

Nevskiy-31

Last reported at 2015-May-25 06:33 UTC. Time now 2015-May-25 07:19 UTC.
Position N 59°56' E 030°24'.

Length 111 m; draft 2.4 m.

Type: Cargo ship. MMSI: 273440320.

Date/timePositionNaut miles runAvg speedWind from/ knotsBaromVisibWave heightAir tempDewpointWater temp
2015-May-25 06:33N 59°56' E 030°24'2 2.1
2015-May-25 05:33N 59°54' E 030°26'0 0.0
2015-May-25 04:23N 59°54' E 030°26'0 0.2
2015-May-25 03:30N 59°54' E 030°26'4 3.7
2015-May-25 02:33N 59°57' E 030°22'5 4.7
2015-May-25 01:33N 59°58' E 030°13'6 6.2
2015-May-25 00:33N 59°56' E 030°02'6 6.3
2015-May-24 23:33N 59°57' E 029°50'6 0.4
2015-May-24 09:31N 59°60' E 029°39'7 7.4
2015-May-24 08:33N 59°57' E 029°53'7 6.8
2015-May-24 07:33N 59°57' E 030°06'4 4.3
2015-May-24 06:33N 59°53' E 030°11'2 1.6
2015-May-24 05:33N 59°52' E 030°13'0 0.0
2015-May-24 04:33N 59°52' E 030°13'0 0.1
2015-May-24 03:34N 59°52' E 030°13'6 5.9
2015-May-24 02:33N 59°55' E 030°03'6 6.3
2015-May-24 01:33N 59°57' E 029°51'6 6.1
2015-May-24 00:33N 59°60' E 029°40'0 0.0
2015-May-23 10:33N 59°60' E 029°40'7 7.0
2015-May-23 09:33N 59°57' E 029°52'6 6.3
2015-May-23 08:33N 59°56' E 030°05'6 6.5
2015-May-23 07:33N 59°57' E 030°18'5 4.6
2015-May-23 06:27N 59°54' E 030°26'0 0.0
2015-May-23 05:32N 59°54' E 030°26'0 0.0
2015-May-23 03:12N 59°54' E 030°26'2 3.6
2015-May-23 02:33N 59°56' E 030°24'3 3.3
2015-May-23 01:33N 59°57' E 030°17'1 1.2
2015-May-23 00:33N 59°57' E 030°15'0 0.0
2015-May-22 23:33N 59°57' E 030°15'4 3.8
2015-May-22 22:33N 59°57' E 030°08'6 6.1
2015-May-22 21:33N 59°56' E 029°56'7 6.4
2015-May-22 20:32N 59°59' E 029°44'0 0.0
2015-May-22 06:26N 59°59' E 029°44'6 7.2
2015-May-22 05:33N 59°56' E 029°55'7 7.2
2015-May-22 04:33N 59°57' E 030°10'7 7.1
2015-May-22 03:33N 59°57' E 030°24'4 2.8
2015-May-22 02:15N 59°54' E 030°26'0 0.0
2015-May-22 01:33N 59°54' E 030°26'0 0.0
2015-May-22 00:33N 59°54' E 030°26'0 0.0
2015-May-21 23:29N 59°54' E 030°26'0 0.1
2015-May-21 22:31N 59°54' E 030°26'2 2.2
2015-May-21 21:32N 59°56' E 030°24'3 3.0
2015-May-21 20:33N 59°57' E 030°18'2 1.6
2015-May-21 19:33N 59°57' E 030°15'0 0.0
2015-May-21 18:33N 59°57' E 030°15'0 0.0
2015-May-21 17:33N 59°57' E 030°15'1 1.3
2015-May-21 16:33N 59°58' E 030°13'6 6.2
2015-May-21 15:33N 59°55' E 030°01'6 6.5
2015-May-21 14:33N 59°57' E 029°49'16 1.1
2015-May-21 00:23N 60°00' E 029°18'6 7.5
2015-May-20 23:32N 60°00' E 029°31'7 7.5
2015-May-20 22:33N 59°59' E 029°45'8 7.6
2015-May-20 21:33N 59°55' E 029°59'7 7.3
2015-May-20 20:33N 59°58' E 030°13'6 6.1
2015-May-20 19:33N 59°56' E 030°24'2 2.0
2015-May-20 18:33N 59°54' E 030°26'0 0.0
2015-May-20 17:33N 59°54' E 030°26'0 0.1
2015-May-20 16:27N 59°54' E 030°27'0 0.0
2015-May-20 13:29N 59°54' E 030°27'0 0.0
2015-May-20 12:32N 59°54' E 030°27'0 0.2
2015-May-20 09:32N 59°54' E 030°26'4 3.6
2015-May-20 08:33N 59°57' E 030°22'5 4.8
2015-May-20 07:33N 59°58' E 030°12'6 6.4
2015-May-20 06:33N 59°55' E 030°00'7 6.8
2015-May-20 05:33N 59°58' E 029°48'2 0.1
2015-May-19 15:26N 59°59' E 029°44'7 7.7
2015-May-19 14:32N 59°56' E 029°57'7 7.0
2015-May-19 13:33N 59°58' E 030°10'7 6.6
2015-May-19 12:32N 59°57' E 030°24'4 2.8
2015-May-19 11:14N 59°54' E 030°26'0 0.0
2015-May-19 10:23N 59°54' E 030°26'0 0.0
2015-May-19 09:24N 59°54' E 030°26'0 0.1
2015-May-19 07:22N 59°54' E 030°26'4 4.2
2015-May-19 06:31N 59°57' E 030°23'4 4.6
2015-May-19 05:33N 59°58' E 030°14'5 5.2
2015-May-19 04:32N 59°56' E 030°04'3 3.1
2015-May-19 03:33N 59°56' E 029°58'5 4.8
2015-May-19 02:33N 59°57' E 029°49'7 0.4
2015-May-18 09:28N 60°00' E 029°37'6 6.8
2015-May-18 08:33N 59°58' E 029°48'7 7.1
2015-May-18 07:33N 59°56' E 030°02'7 7.1
2015-May-18 06:33N 59°58' E 030°15'6 5.8
2015-May-18 05:32N 59°55' E 030°25'1 0.7
2015-May-18 04:31N 59°54' E 030°26'0 0.0
2015-May-18 03:25N 59°54' E 030°26'0 0.0
2015-May-17 20:07N 59°54' E 030°27'2 4.0
2015-May-17 19:31N 59°56' E 030°24'3 3.1
2015-May-17 18:33N 59°57' E 030°18'5 5.0
2015-May-17 17:33N 59°57' E 030°08'6 6.3
2015-May-17 16:33N 59°56' E 029°56'6 6.3
2015-May-17 15:32N 59°59' E 029°44'1 0.1
2015-May-16 22:32N 59°59' E 029°46'7 7.2
2015-May-16 21:33N 59°56' E 029°59'6 6.3
2015-May-16 20:33N 59°58' E 030°10'2 2.4
2015-May-16 19:33N 59°57' E 030°15'0 0.0
2015-May-16 18:32N 59°57' E 030°15'0 0.0
2015-May-16 17:33N 59°57' E 030°15'0 0.0
2015-May-16 16:32N 59°57' E 030°15'0 0.0
2015-May-16 15:33N 59°57' E 030°15'0 0.0
2015-May-16 14:33N 59°57' E 030°15'0 0.0
2015-May-16 13:33N 59°57' E 030°15'0 0.0
2015-May-16 12:33N 59°57' E 030°15'0 0.0
2015-May-16 11:33N 59°57' E 030°15'0 0.0
2015-May-16 10:33N 59°57' E 030°15'0 0.0
2015-May-16 09:33N 59°57' E 030°15'0 0.0
2015-May-16 08:33N 59°57' E 030°15'0 0.0
2015-May-16 07:33N 59°57' E 030°15'0 0.0
2015-May-16 06:33N 59°57' E 030°15'0 0.0
2015-May-16 05:33N 59°57' E 030°15'0 0.0
2015-May-16 04:33N 59°57' E 030°15'0 0.0
2015-May-16 03:33N 59°57' E 030°15'0 0.0
2015-May-16 02:33N 59°57' E 030°15'0 0.0
2015-May-16 01:33N 59°57' E 030°15'0 0.0
2015-May-16 00:33N 59°57' E 030°15'0 0.0
2015-May-15 23:33N 59°57' E 030°15'0 0.1
2015-May-15 22:33N 59°58' E 030°15'6 6.3
2015-May-15 21:33N 59°56' E 030°03'5 4.7
2015-May-15 20:33N 59°53' E 030°11'2 1.8
2015-May-15 19:33N 59°52' E 030°13'0 0.0
2015-May-15 18:33N 59°52' E 030°13'0 0.0
2015-May-15 17:33N 59°52' E 030°13'0 0.0
2015-May-15 16:33N 59°52' E 030°13'0 0.2
2015-May-15 15:32N 59°52' E 030°13'4 4.2
2015-May-15 14:33N 59°54' E 030°06'6 6.1
2015-May-15 13:33N 59°56' E 029°55'6 6.0
2015-May-15 12:33N 59°59' E 029°44'  

Dump ship's entire track history